Time;durP1;ratioP1;P1;durP2;ratioP2;P2;SDS_P1;SDS_P2;PMS_P1;PMS_P2;Temp;Humidity;BMP_temperature;BMP_pressure;BME280_temperature;BME280_humidity;BME280_pressure;Samples;Min_cycle;Max_cycle;Signal;HPM_P1;HPM_P2
2022/06/14 04:58:13;;;;;;;;;6.50;6.50;;;;;14.35;56.08;101637.50;5074010;28;45335;-49
2022/06/14 05:00:53;;;;;;;;;8.25;8.25;;;;;14.86;55.10;101636.66;5056532;28;45311;-51
2022/06/14 05:03:38;;;;;;;;;6.25;6.25;;;;;15.27;54.36;101635.03;5056607;28;45476;-53
2022/06/14 05:06:14;;;;;;;;;7.75;6.25;;;;;15.67;53.19;101635.09;5053948;28;45467;-53
2022/06/14 05:09:06;;;;;;;;;9.25;6.75;;;;;15.98;52.25;101635.34;5052808;28;46201;-53
2022/06/14 05:11:40;;;;;;;;;10.50;8.25;;;;;16.21;52.06;101633.94;5051832;28;45287;-49
2022/06/14 05:14:17;;;;;;;;;8.75;7.25;;;;;16.42;51.97;101619.28;5056725;28;45366;-50
2022/06/14 05:16:53;;;;;;;;;6.25;5.25;;;;;16.61;51.39;101624.16;5055995;28;45216;-51
2022/06/14 05:19:25;;;;;;;;;6.75;6.75;;;;;16.77;50.70;101628.16;5056323;28;45338;-49
2022/06/14 05:22:03;;;;;;;;;9.00;6.75;;;;;16.91;50.02;101627.81;5038648;28;45253;-53
2022/06/14 05:24:30;;;;;;;;;5.75;5.75;;;;;17.02;49.96;101627.53;5036112;28;45391;-50
2022/06/14 05:27:10;;;;;;;;;8.00;7.00;;;;;17.14;49.45;101616.56;5034746;28;45560;-52
2022/06/14 05:29:59;;;;;;;;;6.75;6.75;;;;;17.24;49.32;101616.31;5036036;28;45428;-51
2022/06/14 05:32:33;;;;;;;;;6.25;6.00;;;;;17.31;49.11;101618.75;5035698;28;45321;-51
2022/06/14 05:35:28;;;;;;;;;8.00;6.00;;;;;17.35;49.42;101625.69;5037219;28;45387;-56
2022/06/14 05:38:19;;;;;;;;;6.00;6.00;;;;;17.37;49.13;101626.53;5048288;28;45256;-55
2022/06/14 05:41:01;;;;;;;;;3.25;3.00;;;;;17.38;49.05;101622.09;5043409;28;46212;-54
2022/06/14 05:43:31;;;;;;;;;5.00;5.00;;;;;17.42;49.16;101623.75;5048027;28;45683;-54
2022/06/14 05:46:12;;;;;;;;;7.00;5.75;;;;;17.45;48.74;101628.97;5043156;28;45170;-48
2022/06/14 05:48:51;;;;;;;;;7.25;6.00;;;;;17.50;48.70;101631.50;5041669;28;45435;-53
2022/06/14 05:51:24;;;;;;;;;5.50;5.50;;;;;17.54;48.73;101639.31;5054294;28;48267;-54
2022/06/14 05:54:25;;;;;;;;;6.00;5.75;;;;;17.60;48.97;101643.59;5035937;28;45225;-54
2022/06/14 05:57:23;;;;;;;;;6.00;6.00;;;;;17.67;48.26;101641.63;5054540;28;45411;-57
2022/06/14 05:59:57;;;;;;;;;5.00;4.00;;;;;17.69;48.19;101626.50;5062391;28;45401;-56
2022/06/14 06:02:31;;;;;;;;;5.50;5.50;;;;;17.74;48.03;101635.22;5061792;28;45270;-56
2022/06/14 06:05:05;;;;;;;;;5.50;5.50;;;;;17.80;48.22;101631.53;5054000;28;45441;-53
2022/06/14 06:07:39;;;;;;;;;5.25;5.25;;;;;17.84;48.08;101635.81;5054719;28;45497;-56
2022/06/14 06:10:13;;;;;;;;;16.75;15.75;;;;;17.91;47.80;101625.84;5044209;28;45481;-55
2022/06/14 06:12:43;;;;;;;;;5.25;5.25;;;;;17.97;47.49;101633.69;5054208;28;45243;-57
2022/06/14 06:15:18;;;;;;;;;11.75;8.00;;;;;18.03;47.42;101620.19;5054903;28;45443;-56
2022/06/14 06:17:49;;;;;;;;;7.25;6.00;;;;;18.08;47.26;101622.72;5049948;28;45447;-57
2022/06/14 06:20:25;;;;;;;;;8.75;7.25;;;;;18.22;47.14;101625.78;5058098;28;45593;-57
2022/06/14 06:22:59;;;;;;;;;3.50;3.50;;;;;18.29;46.93;101622.03;5051341;28;45335;-56
2022/06/14 06:25:32;;;;;;;;;7.00;6.00;;;;;18.40;46.63;101624.34;5048060;28;45777;-56
2022/06/14 06:28:05;;;;;;;;;5.00;5.00;;;;;18.49;46.44;101620.50;5061819;28;45293;-57
2022/06/14 06:30:39;;;;;;;;;5.50;5.50;;;;;18.56;46.26;101614.03;5031332;28;45554;-57
2022/06/14 06:33:10;;;;;;;;;10.00;7.00;;;;;18.66;46.22;101618.09;5045703;28;46491;-51
2022/06/14 06:35:58;;;;;;;;;7.25;4.75;;;;;18.78;45.90;101616.84;5046704;28;45422;-51
2022/06/14 06:38:45;;;;;;;;;7.50;6.00;;;;;18.86;45.50;101605.06;5038061;28;45455;-50
2022/06/14 06:43:46;;;;;;;;;5.75;5.25;;;;;18.98;45.52;101599.28;5297233;22;46138;-50
2022/06/14 06:46:14;;;;;;;;;4.75;4.75;;;;;19.04;44.99;101595.56;5040272;28;45229;-50
2022/06/14 06:48:45;;;;;;;;;4.00;4.00;;;;;19.11;45.19;101595.28;5057029;28;45440;-51
2022/06/14 06:51:15;;;;;;;;;8.75;7.50;;;;;19.17;44.90;101589.72;5059077;28;45277;-52
2022/06/14 06:53:47;;;;;;;;;8.00;7.50;;;;;19.24;45.17;101602.81;5076604;28;45255;-49
2022/06/14 06:56:20;;;;;;;;;5.00;3.75;;;;;19.29;44.66;101607.03;5080584;28;45549;-50
2022/06/14 06:58:56;;;;;;;;;5.00;4.00;;;;;19.34;43.92;101604.22;5082129;28;45401;-52
2022/06/14 07:01:27;;;;;;;;;3.00;3.00;;;;;19.38;44.25;101600.50;5081746;27;45464;-52
2022/06/14 07:04:09;;;;;;;;;4.00;4.00;;;;;19.43;44.60;101603.00;5081123;27;46330;-52
2022/06/14 07:06:45;;;;;;;;;5.00;5.00;;;;;19.50;43.77;101609.84;5080571;28;45339;-48
2022/06/14 07:09:15;;;;;;;;;3.25;3.25;;;;;19.56;44.04;101611.38;5081878;27;45236;-49
2022/06/14 07:11:50;;;;;;;;;4.25;4.25;;;;;19.61;43.90;101609.44;5081708;28;45302;-49
2022/06/14 07:14:22;;;;;;;;;4.75;4.75;;;;;19.69;43.14;101603.81;5066104;27;46717;-48
2022/06/14 07:17:12;;;;;;;;;3.75;3.50;;;;;19.74;43.30;101607.16;5061330;28;47295;-51
2022/06/14 07:19:54;;;;;;;;;6.00;6.00;;;;;19.80;43.13;101599.78;5054079;28;45398;-51
2022/06/14 07:22:25;;;;;;;;;4.25;4.25;;;;;19.87;43.19;101597.75;5060528;28;45292;-51
2022/06/14 07:25:07;;;;;;;;;5.75;5.50;;;;;19.95;43.26;101593.00;5061077;28;45424;-50
2022/06/14 07:27:47;;;;;;;;;5.25;4.75;;;;;20.04;42.85;101591.75;5076525;28;45429;-48
2022/06/14 07:30:21;;;;;;;;;6.00;4.50;;;;;20.12;42.55;101594.13;5060539;28;45348;-51
2022/06/14 07:32:51;;;;;;;;;3.50;3.50;;;;;20.22;43.01;101581.28;5060454;28;45264;-54
2022/06/14 07:35:25;;;;;;;;;6.50;5.75;;;;;20.30;42.86;101588.03;5060859;28;45692;-49
2022/06/14 07:38:16;;;;;;;;;5.25;5.25;;;;;20.43;42.56;101585.69;5059458;28;45542;-48
2022/06/14 07:40:53;;;;;;;;;4.00;4.00;;;;;20.55;42.29;101584.34;5058485;28;45306;-51
2022/06/14 07:43:48;;;;;;;;;5.00;4.75;;;;;20.69;42.05;101585.53;5060272;28;45619;-50
2022/06/14 07:46:22;;;;;;;;;4.50;4.25;;;;;20.80;41.97;101585.94;5060485;28;45370;-53
2022/06/14 07:48:56;;;;;;;;;5.25;4.00;;;;;20.91;41.97;101586.34;5057590;28;45489;-52
2022/06/14 07:51:31;;;;;;;;;5.50;4.25;;;;;20.99;41.69;101575.31;5060678;28;45354;-53
2022/06/14 07:54:22;;;;;;;;;4.00;4.00;;;;;21.09;41.93;101570.44;5060603;28;45226;-49
2022/06/14 07:56:56;;;;;;;;;6.00;6.00;;;;;21.14;41.64;101576.41;5057440;28;46058;-52
2022/06/14 07:59:32;;;;;;;;;4.00;4.00;;;;;21.14;41.41;101570.22;5058934;28;45464;-51
2022/06/14 08:02:14;;;;;;;;;4.75;4.75;;;;;21.23;40.75;101578.69;5058676;28;45545;-54
2022/06/14 08:04:44;;;;;;;;;6.00;6.00;;;;;21.28;40.43;101575.78;5058867;28;45490;-51
2022/06/14 08:07:14;;;;;;;;;14.75;12.00;;;;;21.32;40.29;101574.72;5058956;28;45504;-52
2022/06/14 08:09:43;;;;;;;;;13.75;11.00;;;;;21.35;40.29;101561.22;5058792;28;45509;-51
2022/06/14 08:12:31;;;;;;;;;7.25;6.00;;;;;21.42;40.19;101559.09;5063893;28;45376;-51
2022/06/14 08:15:03;;;;;;;;;8.75;8.25;;;;;21.48;40.51;101556.16;5051158;28;45443;-53
2022/06/14 08:17:45;;;;;;;;;5.25;4.25;;;;;21.52;40.02;101547.06;5059017;28;45508;-53
2022/06/14 08:20:24;;;;;;;;;12.75;10.50;;;;;21.61;39.57;101547.56;5058007;28;45469;-52
2022/06/14 08:22:55;;;;;;;;;8.00;6.75;;;;;21.67;39.66;101553.53;5057991;28;45560;-49
2022/06/14 08:25:26;;;;;;;;;6.00;6.00;;;;;21.72;39.85;101545.25;5058642;28;45552;-53
2022/06/14 08:27:56;;;;;;;;;4.00;4.00;;;;;21.85;39.55;101541.03;5057360;28;46245;-53
2022/06/14 08:30:33;;;;;;;;;5.00;5.00;;;;;21.92;38.88;101531.78;5059592;28;45442;-52
2022/06/14 08:33:08;;;;;;;;;7.75;6.75;;;;;21.99;38.99;101540.38;5058344;28;45386;-50
2022/06/14 08:36:11;;;;;;;;;5.75;4.50;;;;;22.07;38.90;101535.50;5060470;28;45402;-50
2022/06/14 08:38:45;;;;;;;;;4.50;4.50;;;;;22.11;38.59;101527.31;5054446;28;45458;-53
2022/06/14 08:41:55;;;;;;;;;6.25;6.25;;;;;22.18;38.65;101529.59;5053127;28;45552;-50
2022/06/14 08:44:25;;;;;;;;;6.50;6.25;;;;;22.28;38.98;101532.69;5057961;28;45417;-52
2022/06/14 08:46:56;;;;;;;;;5.75;5.50;;;;;22.38;38.16;101528.59;5058625;28;45546;-52
2022/06/14 08:49:42;;;;;;;;;5.00;4.50;;;;;22.50;38.44;101521.78;5059364;28;45472;-49
2022/06/14 08:52:12;;;;;;;;;10.00;7.25;;;;;22.64;38.57;101523.72;5046377;28;45382;-49
2022/06/14 08:55:16;;;;;;;;;5.25;4.00;;;;;22.77;38.22;101523.94;5059594;28;45402;-50
2022/06/14 08:57:56;;;;;;;;;4.50;4.25;;;;;22.85;37.24;101521.69;5015351;28;45521;-50
2022/06/14 09:00:44;;;;;;;;;5.00;4.25;;;;;22.93;37.27;101526.66;5047680;28;45521;-51
2022/06/14 09:03:22;;;;;;;;;5.50;5.50;;;;;23.01;36.74;101531.59;5057799;28;45447;-47
2022/06/14 09:06:19;;;;;;;;;6.00;6.00;;;;;23.06;37.03;101529.53;5055174;28;45487;-50
2022/06/14 09:09:15;;;;;;;;;6.50;6.50;;;;;23.07;36.64;101530.38;5050115;28;45640;-52
2022/06/14 09:12:09;;;;;;;;;8.00;6.00;;;;;23.10;36.48;101532.91;5047566;28;45354;-53
2022/06/14 09:14:59;;;;;;;;;5.75;5.75;;;;;23.20;36.65;101534.16;5054127;28;45584;-52
2022/06/14 09:17:55;;;;;;;;;7.25;7.25;;;;;23.29;36.50;101536.31;5056399;28;45319;-52
2022/06/14 09:20:33;;;;;;;;;8.25;7.00;;;;;23.39;35.93;101519.75;5039564;28;45627;-52
2022/06/14 09:23:26;;;;;;;;;7.25;5.25;;;;;23.47;35.92;101530.88;5059147;28;45484;-51
2022/06/14 09:26:32;;;;;;;;;6.75;5.00;;;;;23.58;35.88;101536.50;5053571;28;45402;-52
2022/06/14 09:29:25;;;;;;;;;5.25;5.00;;;;;23.68;35.59;101531.50;5057309;28;45327;-51
2022/06/14 09:32:12;;;;;;;;;8.00;7.00;;;;;23.78;35.52;101521.94;5058796;28;45414;-51
2022/06/14 09:35:02;;;;;;;;;7.25;7.00;;;;;23.77;35.15;101514.00;5047701;28;45294;-51
2022/06/14 09:37:36;;;;;;;;;4.75;4.25;;;;;23.83;35.12;101516.34;5047170;28;45311;-53
2022/06/14 09:40:25;;;;;;;;;5.00;5.00;;;;;23.88;34.90;101516.94;5057160;28;45284;-52
2022/06/14 09:43:09;;;;;;;;;5.00;4.50;;;;;23.93;34.70;101514.88;5059503;28;45260;-53
2022/06/14 09:46:08;;;;;;;;;9.25;9.00;;;;;24.06;34.98;101509.63;5051274;28;45340;-50
2022/06/14 09:49:05;;;;;;;;;7.50;6.00;;;;;24.13;34.29;101516.38;5059898;28;45641;-48
2022/06/14 09:51:43;;;;;;;;;6.00;5.00;;;;;24.26;34.42;101516.50;5048848;28;45343;-47
2022/06/14 09:54:08;;;;;;;;;7.50;5.75;;;;;24.34;34.39;101514.22;5062566;28;45307;-52
2022/06/14 09:56:55;;;;;;;;;6.25;3.25;;;;;24.45;34.14;101515.41;5062226;28;45396;-49
2022/06/14 10:00:00;;;;;;;;;5.00;4.00;;;;;24.58;33.85;101512.81;5057599;28;45997;-49
2022/06/14 10:02:47;;;;;;;;;6.00;5.00;;;;;24.67;34.10;101510.47;5054841;28;45426;-51
2022/06/14 10:05:40;;;;;;;;;5.50;4.75;;;;;24.82;33.52;101511.34;5062463;28;45229;-51
2022/06/14 10:08:35;;;;;;;;;5.75;5.75;;;;;24.97;33.39;101505.97;5034111;28;45517;-49
2022/06/14 10:11:32;;;;;;;;;7.75;7.25;;;;;25.12;33.61;101505.00;5059864;28;45531;-51
2022/06/14 10:14:35;;;;;;;;;7.50;7.50;;;;;25.32;33.69;101510.94;5056329;28;46153;-52
2022/06/14 10:17:26;;;;;;;;;7.50;6.00;;;;;25.49;33.43;101506.31;5056063;28;45363;-50
2022/06/14 10:20:06;;;;;;;;;8.25;5.75;;;;;25.58;32.51;101495.78;5041692;28;45445;-50
2022/06/14 10:22:56;;;;;;;;;7.75;7.00;;;;;25.73;32.40;101498.44;5062207;28;45400;-51
2022/06/14 10:25:36;;;;;;;;;5.00;4.50;;;;;25.94;32.13;101502.38;5057025;28;45613;-52
2022/06/14 10:28:25;;;;;;;;;7.75;7.00;;;;;26.11;31.97;101498.59;5060930;28;45332;-51
2022/06/14 10:31:15;;;;;;;;;5.25;5.25;;;;;26.27;31.66;101498.38;5047533;28;45323;-47
2022/06/14 10:33:59;;;;;;;;;8.50;6.25;;;;;26.45;31.96;101495.38;5056960;28;45414;-49
2022/06/14 10:36:46;;;;;;;;;7.25;5.50;;;;;26.67;31.44;101497.44;5054805;28;45500;-52
2022/06/14 10:39:23;;;;;;;;;5.50;5.50;;;;;27.01;31.22;101486.97;5050731;28;45363;-51
2022/06/14 10:42:00;;;;;;;;;5.50;5.25;;;;;27.50;30.68;101487.09;5061581;28;45280;-52
2022/06/14 10:44:51;;;;;;;;;5.00;5.00;;;;;28.18;31.13;101488.22;5061859;28;45307;-53
2022/06/14 10:48:07;;;;;;;;;6.75;6.00;;;;;30.41;29.95;101483.66;5050533;28;45411;-54
2022/06/14 10:50:57;;;;;;;;;5.00;4.25;;;;;34.59;27.29;101478.41;5017924;28;45956;-54
2022/06/14 10:53:54;;;;;;;;;7.00;6.25;;;;;38.63;24.72;101473.66;5061077;28;45397;-53
2022/06/14 10:56:47;;;;;;;;;5.00;4.25;;;;;41.26;22.04;101478.44;5024620;28;45497;-53
2022/06/14 10:59:25;;;;;;;;;7.75;6.25;;;;;43.63;19.47;101476.63;5061374;28;45504;-53
2022/06/14 11:01:57;;;;;;;;;6.00;5.50;;;;;44.85;18.00;101473.53;5060991;28;45375;-55
2022/06/14 11:04:42;;;;;;;;;6.25;5.00;;;;;45.72;16.92;101467.50;5061114;28;46581;-54
2022/06/14 11:07:29;;;;;;;;;5.75;5.25;;;;;47.70;16.11;101460.16;5060157;28;45356;-52
2022/06/14 11:10:12;;;;;;;;;7.25;6.75;;;;;50.83;14.52;101463.41;5050776;28;45454;-53
2022/06/14 11:12:49;;;;;;;;;4.75;4.75;;;;;53.89;12.25;101455.44;5055762;28;45426;-52
2022/06/14 11:15:37;;;;;;;;;8.00;8.00;;;;;55.05;10.99;101444.84;5049923;28;46097;-55
2022/06/14 11:18:44;;;;;;;;;5.50;5.50;;;;;56.63;10.05;101438.34;5048608;28;45465;-55
2022/06/14 11:21:44;;;;;;;;;7.50;5.25;;;;;58.43;9.46;101440.25;5046245;28;45205;-54
2022/06/14 11:24:42;;;;;;;;;5.50;5.50;;;;;59.91;8.49;101428.91;5060698;28;45493;-55
2022/06/14 11:27:10;;;;;;;;;3.50;3.50;;;;;61.14;7.00;101434.41;5044858;28;45458;-56
2022/06/14 11:29:38;;;;;;;;;7.00;6.00;;;;;62.16;7.06;101438.59;5061074;28;45308;-53
2022/06/14 11:32:28;;;;;;;;;4.00;4.00;;;;;63.09;5.54;101431.09;5060429;28;45449;-53
2022/06/14 11:35:45;;;;;;;;;5.00;4.50;;;;;62.32;5.65;101425.25;5059347;28;45717;-50
2022/06/14 11:39:03;;;;;;;;;7.00;6.75;;;;;62.76;5.81;101423.69;5042922;28;46842;-54
2022/06/14 11:41:34;;;;;;;;;3.75;3.00;;;;;59.40;6.36;101403.34;5026580;28;45873;-56
2022/06/14 11:44:23;;;;;;;;;5.50;4.75;;;;;55.12;6.82;101387.38;5059325;28;45749;-56
2022/06/14 11:47:16;;;;;;;;;5.75;5.75;;;;;51.35;8.57;101366.38;5053915;28;45510;-57
2022/06/14 11:49:54;;;;;;;;;3.00;3.00;;;;;48.52;9.24;101360.22;5056473;28;45497;-56
2022/06/14 11:52:34;;;;;;;;;4.75;4.75;;;;;46.09;10.68;101347.06;5059433;28;45417;-56
2022/06/14 11:55:18;;;;;;;;;4.75;4.75;;;;;43.78;11.28;101353.72;5059054;28;45414;-57
2022/06/14 11:58:19;;;;;;;;;4.50;4.00;;;;;41.89;12.43;101345.69;5058517;28;45967;-53
2022/06/14 12:00:51;;;;;;;;;4.00;2.75;;;;;40.38;13.56;101345.06;5059686;28;45551;-54
2022/06/14 12:03:49;;;;;;;;;4.25;4.25;;;;;39.05;14.39;101345.75;5062075;28;45438;-57
2022/06/14 12:06:48;;;;;;;;;5.50;3.75;;;;;37.90;15.65;101353.59;5059703;28;45344;-53
2022/06/14 12:09:47;;;;;;;;;6.00;4.25;;;;;36.95;16.61;101347.53;5057607;28;45343;-55
2022/06/14 12:12:41;;;;;;;;;4.00;4.00;;;;;36.17;16.47;101338.31;5063290;28;46483;-56
2022/06/14 12:15:11;;;;;;;;;4.50;4.50;;;;;35.46;17.40;101339.78;5058837;28;45360;-53
2022/06/14 12:17:55;;;;;;;;;4.00;4.00;;;;;34.92;17.64;101337.50;5058261;28;45394;-55
2022/06/14 12:20:24;;;;;;;;;5.00;4.50;;;;;34.59;17.72;101322.91;5051243;28;45253;-54
2022/06/14 12:22:55;;;;;;;;;6.00;6.00;;;;;34.32;18.32;101339.31;5072440;28;46892;-53
2022/06/14 12:28:23;;;;;;;;;4.50;4.50;;;;;33.97;18.72;101329.44;5056122;28;45322;-55
2022/06/14 12:30:54;;;;;;;;;4.25;4.25;;;;;33.90;19.30;101329.25;5057268;28;45407;-55
2022/06/14 12:33:30;;;;;;;;;6.75;5.25;;;;;33.83;18.96;101320.00;5058657;28;47378;-55
2022/06/14 12:36:12;;;;;;;;;6.00;5.00;;;;;33.60;18.55;101312.31;5059867;28;45427;-56
2022/06/14 12:38:41;;;;;;;;;4.00;4.00;;;;;33.46;19.40;101311.03;5058464;28;45248;-55
2022/06/14 12:41:07;;;;;;;;;5.75;4.25;;;;;33.35;19.24;101300.41;5047146;28;45371;-55
2022/06/14 12:43:41;;;;;;;;;5.00;4.25;;;;;33.30;19.25;101300.88;5052713;28;47916;-54
2022/06/14 12:46:12;;;;;;;;;5.75;3.75;;;;;33.26;19.81;101304.00;5051357;28;45261;-55
2022/06/14 12:48:46;;;;;;;;;4.00;4.00;;;;;33.23;19.67;101302.47;5045238;28;45250;-55
2022/06/14 12:51:22;;;;;;;;;2.75;2.75;;;;;33.24;19.49;101304.19;5059510;28;45289;-55
2022/06/14 12:53:57;;;;;;;;;4.00;4.00;;;;;33.24;19.91;101303.34;5059240;28;46282;-54
2022/06/14 12:56:33;;;;;;;;;5.50;5.50;;;;;33.26;19.26;101298.56;5054538;28;45433;-55
2022/06/14 12:59:11;;;;;;;;;4.00;4.00;;;;;33.32;19.60;101301.56;5052217;28;45220;-53
2022/06/14 13:01:46;;;;;;;;;7.00;6.00;;;;;33.37;20.09;101301.94;5047187;28;45278;-55
2022/06/14 13:04:43;;;;;;;;;5.75;4.75;;;;;33.50;20.34;101303.41;5059391;28;45577;-55
2022/06/14 13:07:34;;;;;;;;;5.75;4.25;;;;;33.70;19.88;101295.88;5057093;28;45507;-55
2022/06/14 13:10:09;;;;;;;;;8.25;5.00;;;;;33.88;19.12;101305.88;5059834;28;45569;-55
2022/06/14 13:12:58;;;;;;;;;4.00;4.00;;;;;34.07;19.36;101302.06;5059345;28;45407;-57
2022/06/14 13:15:23;;;;;;;;;6.00;4.50;;;;;34.46;19.29;101309.75;5055648;28;45428;-55
2022/06/14 13:18:21;;;;;;;;;5.25;5.25;;;;;34.98;19.35;101312.28;5059369;28;45447;-55
2022/06/14 13:21:16;;;;;;;;;5.00;3.75;;;;;35.73;18.89;101307.63;5050336;28;45474;-56
2022/06/14 13:23:42;;;;;;;;;4.75;3.75;;;;;37.81;18.28;101303.50;5062763;28;46155;-56
2022/06/14 13:26:30;;;;;;;;;5.00;5.00;;;;;41.13;16.21;101302.88;5063038;28;46345;-55
2022/06/14 13:29:14;;;;;;;;;2.75;2.75;;;;;44.60;14.48;101311.00;5058286;28;45372;-55
2022/06/14 13:32:12;;;;;;;;;5.00;4.75;;;;;47.61;12.87;101312.25;5056452;28;45242;-56
2022/06/14 13:34:55;;;;;;;;;3.75;3.75;;;;;49.23;11.13;101313.75;5039919;28;45484;-56
2022/06/14 13:37:29;;;;;;;;;3.00;3.00;;;;;49.77;10.83;101304.31;5042603;28;46251;-57
2022/06/14 13:40:04;;;;;;;;;4.75;4.75;;;;;49.91;10.12;101297.09;5057751;28;45440;-58
2022/06/14 13:42:51;;;;;;;;;4.75;3.00;;;;;49.17;9.99;101293.31;5062892;28;45326;-58
2022/06/14 13:45:38;;;;;;;;;5.75;5.00;;;;;48.32;10.35;101294.78;5049202;28;45493;-58
2022/06/14 13:48:37;;;;;;;;;4.50;3.00;;;;;47.59;10.75;101277.44;5062371;28;45502;-57
2022/06/14 13:51:48;;;;;;;;;6.25;4.50;;;;;47.98;10.03;101264.34;5055943;28;45244;-57
2022/06/14 13:54:31;;;;;;;;;4.50;4.00;;;;;49.68;9.55;101264.91;5020297;28;45444;-58
2022/06/14 13:57:13;;;;;;;;;3.75;3.75;;;;;50.84;8.75;101260.13;5020104;28;45554;-58
2022/06/14 13:59:43;;;;;;;;;5.75;5.75;;;;;52.07;8.17;101258.88;5051250;28;45434;-57
2022/06/14 14:02:14;;;;;;;;;2.00;2.00;;;;;52.30;7.92;101250.91;5062155;28;45367;-56
2022/06/14 14:04:42;;;;;;;;;3.00;3.00;;;;;51.77;8.24;101245.88;5062433;28;45291;-57
2022/06/14 14:07:51;;;;;;;;;2.75;2.25;;;;;50.24;8.59;101241.91;5057728;28;45443;-56
2022/06/14 14:10:21;;;;;;;;;3.75;3.75;;;;;50.68;9.05;101245.28;5010891;28;45364;-56
2022/06/14 14:13:05;;;;;;;;;3.00;3.00;;;;;53.32;8.13;101250.25;5062080;27;45332;-53
2022/06/14 14:15:43;;;;;;;;;4.50;4.50;;;;;55.85;7.36;101247.63;5058303;28;45612;-55
2022/06/14 14:18:09;;;;;;;;;2.75;2.75;;;;;57.99;6.21;101264.16;5061730;28;45538;-57
2022/06/14 14:20:49;;;;;;;;;4.00;4.00;;;;;59.54;5.94;101262.31;5060600;28;46399;-57
2022/06/14 14:23:51;;;;;;;;;6.00;3.75;;;;;60.94;5.41;101260.97;5061736;28;45272;-54
2022/06/14 14:26:29;;;;;;;;;3.50;3.50;;;;;62.23;5.16;101260.47;5051413;28;45500;-55
2022/06/14 14:29:13;;;;;;;;;4.25;4.00;;;;;63.10;4.67;101254.19;5060224;28;45459;-58
2022/06/14 14:32:05;;;;;;;;;5.50;3.00;;;;;63.65;4.43;101245.66;5048451;28;45444;-57
2022/06/14 14:34:42;;;;;;;;;3.50;3.50;;;;;64.23;3.79;101246.84;5060196;28;45423;-55
2022/06/14 14:37:08;;;;;;;;;3.00;3.00;;;;;64.69;4.41;101240.34;5061703;28;45394;-55
2022/06/14 14:39:36;;;;;;;;;2.75;2.75;;;;;65.00;3.82;101229.81;5060387;28;45664;-55
2022/06/14 14:42:24;;;;;;;;;4.00;4.00;;;;;65.26;3.38;101216.75;5061443;28;45384;-54
2022/06/14 14:44:59;;;;;;;;;4.50;4.00;;;;;65.50;3.11;101220.31;5077267;27;45415;-55
2022/06/14 14:47:52;;;;;;;;;3.00;3.00;;;;;65.79;2.15;101221.50;5061749;28;45319;-56
2022/06/14 14:50:40;;;;;;;;;6.00;4.00;;;;;65.67;2.52;101207.44;5053697;28;45612;-55
2022/06/14 14:53:34;;;;;;;;;4.50;4.50;;;;;65.76;1.97;101202.28;5061383;28;45307;-55
2022/06/14 14:56:20;;;;;;;;;4.25;3.25;;;;;65.59;2.16;101195.13;5061832;28;45520;-56
2022/06/14 14:58:50;;;;;;;;;4.25;4.25;;;;;65.42;2.20;101194.50;5061936;28;45268;-56
2022/06/14 15:07:53;;;;;;;;;4.00;3.00;;;;;65.10;2.04;101182.63;5058259;28;45375;-56
2022/06/14 15:10:22;;;;;;;;;3.25;3.25;;;;;64.97;2.62;101176.34;5061851;28;45300;-56
2022/06/14 15:12:58;;;;;;;;;3.00;3.00;;;;;64.53;2.62;101174.03;5054665;28;45487;-56
2022/06/14 15:15:32;;;;;;;;;5.00;3.25;;;;;64.40;2.30;101182.78;5055841;28;45472;-55
2022/06/14 15:21:02;;;;;;;;;7.00;3.75;;;;;64.14;1.93;101177.84;5060544;28;45287;-56
2022/06/14 15:23:38;;;;;;;;;2.25;2.25;;;;;63.94;2.32;101171.34;5060791;28;45267;-56
2022/06/14 15:26:04;;;;;;;;;0.00;0.00;;;;;63.53;2.80;101168.88;5048502;28;46339;-56
2022/06/14 15:28:45;;;;;;;;;4.75;3.00;;;;;63.04;2.94;101156.00;5060997;28;45470;-56
2022/06/14 15:31:47;;;;;;;;;4.50;3.00;;;;;62.54;2.53;101150.78;5060982;28;45214;-54
2022/06/14 15:34:22;;;;;;;;;4.00;2.75;;;;;61.88;2.40;101144.59;5041005;28;45620;-55
2022/06/14 15:36:53;;;;;;;;;3.00;3.00;;;;;61.29;3.37;101143.25;5056697;28;46367;-55
2022/06/14 15:39:28;;;;;;;;;7.25;5.25;;;;;60.49;3.66;101140.69;5076613;27;45435;-56
2022/06/14 15:41:56;;;;;;;;;4.00;3.00;;;;;59.73;3.06;101130.69;5056119;28;45438;-56
2022/06/14 15:44:27;;;;;;;;;3.25;2.50;;;;;59.17;3.17;101124.13;5052230;28;45677;-54
2022/06/14 15:47:08;;;;;;;;;3.00;3.00;;;;;58.76;3.71;101124.91;5059007;28;45361;-55
2022/06/14 15:49:45;;;;;;;;;4.00;3.25;;;;;58.14;3.75;101122.28;5059146;28;45262;-56
2022/06/14 15:52:21;;;;;;;;;5.00;5.00;;;;;57.65;3.67;101116.03;5060515;28;45382;-55
2022/06/14 15:54:52;;;;;;;;;2.50;2.25;;;;;57.16;3.58;101110.53;5060264;28;45498;-55
2022/06/14 15:57:36;;;;;;;;;4.00;4.00;;;;;56.41;4.37;101108.44;5059726;28;46235;-56
2022/06/14 16:00:26;;;;;;;;;3.75;3.75;;;;;55.62;4.77;101097.47;5059693;28;45528;-56
2022/06/14 16:03:06;;;;;;;;;4.25;4.25;;;;;55.28;4.77;101098.00;5060444;28;45347;-56
2022/06/14 16:05:38;;;;;;;;;6.00;5.00;;;;;54.77;4.90;101097.91;5059300;28;45880;-55
2022/06/14 16:08:11;;;;;;;;;5.00;3.25;;;;;54.20;5.57;101101.00;5060132;28;46164;-54
2022/06/14 16:10:42;;;;;;;;;4.00;3.00;;;;;53.56;5.85;101098.66;5060683;28;45251;-55
2022/06/14 16:13:24;;;;;;;;;3.75;3.25;;;;;52.70;5.89;101105.06;5060566;28;45473;-54
2022/06/14 16:15:53;;;;;;;;;4.25;4.25;;;;;51.33;6.21;101096.34;5049411;28;45524;-54
2022/06/14 16:18:19;;;;;;;;;5.50;5.50;;;;;49.58;6.78;101089.84;5059824;28;45470;-53
2022/06/14 16:21:00;;;;;;;;;3.25;3.25;;;;;47.68;8.22;101101.41;5057467;28;45286;-54
2022/06/14 16:23:26;;;;;;;;;4.75;4.75;;;;;46.51;8.83;101105.13;5079433;28;45336;-55
2022/06/14 16:25:57;;;;;;;;;3.00;3.00;;;;;45.41;8.95;101097.00;5065301;28;45585;-56
2022/06/14 16:28:43;;;;;;;;;7.00;5.25;;;;;44.51;9.72;101097.22;5076392;27;45291;-55
2022/06/14 16:31:17;;;;;;;;;5.25;5.25;;;;;44.02;10.25;101096.53;5047743;28;45394;-56
2022/06/14 16:34:20;;;;;;;;;5.75;4.00;;;;;43.80;10.04;101091.50;5060118;28;45180;-55
2022/06/14 16:37:02;;;;;;;;;3.00;3.00;;;;;44.06;10.13;101094.97;5060067;28;45295;-55
2022/06/14 16:39:48;;;;;;;;;5.00;5.00;;;;;44.62;9.98;101084.47;5059723;28;45356;-55
2022/06/14 16:42:22;;;;;;;;;6.50;6.00;;;;;45.40;9.84;101090.63;5059941;28;45500;-55
2022/06/14 16:45:29;;;;;;;;;4.50;4.00;;;;;45.99;9.45;101095.13;5058765;28;45201;-55
2022/06/14 16:48:01;;;;;;;;;6.00;6.00;;;;;46.20;9.24;101092.69;5053675;28;45585;-54
2022/06/14 16:50:50;;;;;;;;;5.00;4.75;;;;;46.44;9.09;101089.75;5059837;28;45376;-54
2022/06/14 16:53:43;;;;;;;;;4.50;4.50;;;;;46.55;8.94;101091.59;5059656;28;45161;-55
2022/06/14 16:56:24;;;;;;;;;4.50;4.50;;;;;46.73;9.05;101084.91;5058468;28;45204;-55
2022/06/14 16:59:07;;;;;;;;;5.00;5.00;;;;;46.71;8.96;101082.41;5059816;28;45422;-56
2022/06/14 17:01:42;;;;;;;;;6.00;6.00;;;;;46.62;9.61;101089.47;5058090;28;47153;-56
2022/06/14 17:04:53;;;;;;;;;4.25;3.50;;;;;46.50;9.15;101088.72;5059580;28;45445;-55
2022/06/14 17:07:50;;;;;;;;;13.00;11.25;;;;;46.42;9.04;101084.47;5059738;28;45255;-58
2022/06/14 17:10:16;;;;;;;;;7.50;7.50;;;;;45.94;9.34;101072.81;5050613;28;45711;-55
2022/06/14 17:13:01;;;;;;;;;5.00;5.00;;;;;45.70;9.50;101078.47;5063306;28;46169;-54
2022/06/14 17:15:38;;;;;;;;;5.00;4.25;;;;;45.64;9.22;101073.06;5079705;28;45497;-54
2022/06/14 17:18:14;;;;;;;;;7.00;6.50;;;;;45.49;9.77;101070.81;5055255;28;45366;-53
2022/06/14 17:21:21;;;;;;;;;4.00;3.75;;;;;45.18;10.15;101062.72;5065131;28;45315;-53
2022/06/14 17:23:57;;;;;;;;;6.00;6.00;;;;;44.27;10.17;101069.50;5071159;28;46230;-58
2022/06/14 17:30:09;;;;;;;;;7.50;7.50;;;;;42.16;11.23;101069.63;5017577;28;45472;-57
2022/06/14 17:32:44;;;;;;;;;7.00;6.25;;;;;42.12;11.22;101073.91;5075770;27;45653;-54
2022/06/14 17:35:16;;;;;;;;;8.50;6.00;;;;;41.38;11.71;101056.91;5078348;28;47387;-56
2022/06/14 17:37:53;;;;;;;;;4.00;4.00;;;;;40.38;12.34;101046.94;5079526;27;45280;-55
2022/06/14 17:40:25;;;;;;;;;5.00;4.25;;;;;39.64;12.89;101057.81;5079863;27;45226;-55
2022/06/14 17:43:05;;;;;;;;;3.75;3.75;;;;;38.79;13.07;101056.13;5079463;28;45699;-54
2022/06/14 17:45:36;;;;;;;;;5.00;4.50;;;;;38.09;13.58;101061.44;5079519;27;46292;-53
2022/06/14 17:48:40;;;;;;;;;4.25;4.25;;;;;37.46;14.12;101055.66;5079302;28;45362;-53